Pagina principală
METAR-TAF:

METAR-TAF

Aeroporturi :

Richmond, Australia

Latitudine: 20-42-07S, longitudine: 143-06-53E, elevație: 206 m

Observații meteo curente

Raportul a fost făcut în urmă cu 1 oră și 3 de minute, la 09:00 UTC
Vânt 6 kt de la Sud-est
Temperatură 17°C
Umiditate 52%
Presiune 1017 hPa
Vizibilitate de 10 km sau mai mult

METAR: YRMD 260900Z AUTO 14006KT 9999 // NCD 17/07 Q1017

Ora: 20:03 (10:03 UTC)

Prognoză

Raportul a fost făcut în urmă cu 15 ore și 19 de minute, la 18:44 UTC
Prognoză valabilă de la 25 ora 20 UTC la 26 ora 08 UTC
Vânt 10 kt de la Est/Sud-est
Vizibilitate de 10 km sau mai mult
nu există nori sub 1.500 m și nici cumulonimbus

TAF: YRMD 251844Z 2520/2608 11010KT CAVOK

Observații și prognoze meteo pentru peste 4.000 de aeroporturi (rapoarte METAR și TAF).

Stațiile disponibile sunt reprezentate pe hartă prin puncte galbene și roșii.

Țineți indicatorul mouse-ului pe punctul dorit pentru a vedea denumirea stației.

Apoi, faceți clic pentru a vedea observațiile și prognozele meteorologice.

Pentru a schimba harta: Pentru mărire, faceți clic pe butoanele verzi cu cruce neagră; pentru micșorare, pe butonul verde cu o liniuță; pentru hărți învecinate, pe săgețile verzi.


METAR-TAF: